createdAt,value
2024-02-05T06:01:34.339Z,514.00
2024-02-05T06:02:11.764Z,512.00
2024-02-05T06:03:11.776Z,512.00
2024-02-05T06:04:11.793Z,510.00
2024-02-05T06:05:12.043Z,511.00
2024-02-05T06:06:11.770Z,513.00
2024-02-05T06:07:27.744Z,516.00
2024-02-05T06:08:14.390Z,518.00
2024-02-05T06:09:15.229Z,519.00
2024-02-05T06:10:12.813Z,522.00
2024-02-05T06:11:11.806Z,523.00
2024-02-05T06:12:11.859Z,523.00
2024-02-05T06:13:11.970Z,524.00
2024-02-05T06:14:11.884Z,522.00
2024-02-05T06:15:11.900Z,522.00
2024-02-05T06:16:12.151Z,525.00
2024-02-05T06:17:11.919Z,524.00
2024-02-05T06:18:12.014Z,525.00
2024-02-05T06:19:12.051Z,525.00
2024-02-05T06:20:14.299Z,524.00
2024-02-05T06:21:11.934Z,522.00
2024-02-05T06:22:11.982Z,521.00
2024-02-05T06:23:11.989Z,519.00
2024-02-05T06:24:11.954Z,518.00
2024-02-05T06:25:12.055Z,520.00
2024-02-05T06:26:11.969Z,523.00
2024-02-05T06:27:11.984Z,526.00
2024-02-05T06:28:11.978Z,535.00
2024-02-05T06:29:11.985Z,542.00
2024-02-05T06:30:11.972Z,548.00
2024-02-05T06:31:12.038Z,549.00
2024-02-05T06:32:11.983Z,548.00
2024-02-05T06:33:12.009Z,541.00
2024-02-05T06:34:12.091Z,579.00
2024-02-05T06:35:12.233Z,546.00
2024-02-05T06:36:11.961Z,547.00
2024-02-05T06:37:12.000Z,548.00
2024-02-05T06:38:12.006Z,553.00
2024-02-05T06:39:11.995Z,554.00
2024-02-05T06:40:12.023Z,550.00
2024-02-05T06:41:11.971Z,552.00
2024-02-05T06:42:11.980Z,553.00
2024-02-05T06:43:12.058Z,554.00
2024-02-05T06:44:12.021Z,548.00
2024-02-05T06:45:12.037Z,551.00
2024-02-05T06:46:12.031Z,551.00
2024-02-05T06:47:12.042Z,551.00
2024-02-05T06:48:12.174Z,549.00
2024-02-05T06:49:12.239Z,550.00
2024-02-05T06:50:12.189Z,549.00
2024-02-05T06:51:15.494Z,547.00
2024-02-05T06:52:12.262Z,548.00
2024-02-05T06:53:12.218Z,556.00
2024-02-05T06:54:12.233Z,566.00
2024-02-05T06:55:12.290Z,572.00
2024-02-05T06:56:12.224Z,583.00
2024-02-05T06:57:12.245Z,594.00
2024-02-05T06:58:12.306Z,635.00
2024-02-05T06:59:12.206Z,633.00
2024-02-05T07:00:12.219Z,632.00
2024-02-05T07:01:12.333Z,633.00
2024-02-05T07:02:13.038Z,637.00
2024-02-05T07:03:12.235Z,643.00
2024-02-05T07:04:12.303Z,650.00
2024-02-05T07:05:12.355Z,660.00
2024-02-05T07:06:12.265Z,670.00
2024-02-05T07:07:12.326Z,737.00
2024-02-05T07:08:12.255Z,760.00
2024-02-05T07:09:12.272Z,757.00
2024-02-05T07:10:12.302Z,758.00
2024-02-05T07:11:12.289Z,770.00
2024-02-05T07:12:12.248Z,777.00
2024-02-05T07:13:12.393Z,779.00
2024-02-05T07:14:12.242Z,845.00
2024-02-05T07:15:12.273Z,845.00
2024-02-05T07:16:12.312Z,829.00
2024-02-05T07:17:12.251Z,832.00
2024-02-05T07:18:12.335Z,875.00
2024-02-05T07:19:12.400Z,872.00
2024-02-05T07:20:12.288Z,871.00
2024-02-05T07:21:12.277Z,865.00
2024-02-05T07:22:12.326Z,863.00
2024-02-05T07:23:12.296Z,861.00
2024-02-05T07:24:12.312Z,863.00
2024-02-05T07:25:12.358Z,869.00
2024-02-05T07:26:12.342Z,874.00
2024-02-05T07:27:12.415Z,878.00
2024-02-05T07:28:12.447Z,885.00
2024-02-05T07:29:12.447Z,890.00
2024-02-05T07:30:12.443Z,893.00
2024-02-05T07:31:12.468Z,897.00
2024-02-05T07:32:12.452Z,902.00
2024-02-05T07:33:12.497Z,907.00
2024-02-05T07:34:12.593Z,956.00
2024-02-05T07:35:12.528Z,954.00
2024-02-05T07:36:12.484Z,940.00
2024-02-05T07:37:12.544Z,944.00
2024-02-05T07:38:12.541Z,932.00
2024-02-05T07:39:12.510Z,927.00
2024-02-05T07:40:12.593Z,917.00
2024-02-05T07:41:12.640Z,910.00
2024-02-05T07:42:12.623Z,908.00
2024-02-05T07:43:12.703Z,905.00
2024-02-05T07:44:12.757Z,905.00
2024-02-05T07:45:12.800Z,910.00
2024-02-05T07:46:12.886Z,911.00
2024-02-05T07:47:12.934Z,910.00
2024-02-05T07:48:13.050Z,911.00
2024-02-05T07:49:13.181Z,909.00
2024-02-05T07:50:13.134Z,905.00
2024-02-05T07:51:13.194Z,905.00
2024-02-05T07:52:13.389Z,908.00
2024-02-05T07:53:13.344Z,915.00
2024-02-05T07:54:13.376Z,918.00
2024-02-05T07:55:13.553Z,923.00
2024-02-05T07:56:13.507Z,928.00
2024-02-05T07:57:13.646Z,931.00
2024-02-05T07:58:13.782Z,934.00
2024-02-05T07:59:13.802Z,940.00
2024-02-05T08:00:13.832Z,944.00
2024-02-05T08:01:13.948Z,950.00
2024-02-05T08:02:15.339Z,951.00
2024-02-05T08:03:14.004Z,948.00
2024-02-05T08:04:14.124Z,947.00
2024-02-05T08:05:14.316Z,953.00
2024-02-05T08:06:16.829Z,955.00
2024-02-05T08:08:14.190Z,956.00
2024-02-05T08:09:14.183Z,960.00
2024-02-05T08:10:18.208Z,960.00
2024-02-05T08:11:14.160Z,960.00
2024-02-05T08:12:14.209Z,959.00
2024-02-05T08:13:14.252Z,956.00
2024-02-05T08:14:17.088Z,953.00
2024-02-05T08:15:14.197Z,952.00
2024-02-05T08:16:14.241Z,952.00
2024-02-05T08:17:14.186Z,951.00
2024-02-05T08:18:21.382Z,951.00
2024-02-05T08:19:14.205Z,948.00
2024-02-05T08:20:14.225Z,952.00
2024-02-05T08:21:14.184Z,957.00
2024-02-05T08:22:14.332Z,958.00
2024-02-05T08:23:14.208Z,962.00
2024-02-05T08:24:14.217Z,966.00
2024-02-05T08:25:14.276Z,969.00
2024-02-05T08:26:17.221Z,969.00
2024-02-05T08:27:14.220Z,971.00
2024-02-05T08:28:14.252Z,969.00
2024-02-05T08:29:14.182Z,966.00
2024-02-05T08:30:21.166Z,958.00
2024-02-05T08:31:27.317Z,932.00
2024-02-05T08:32:27.276Z,923.00
2024-02-05T08:33:27.338Z,917.00
2024-02-05T08:34:27.386Z,914.00
2024-02-05T08:35:27.241Z,914.00
2024-02-05T08:36:27.285Z,909.00
2024-02-05T08:37:29.075Z,907.00
2024-02-05T08:38:27.378Z,903.00
2024-02-05T08:39:27.386Z,898.00
2024-02-05T08:40:27.404Z,899.00
2024-02-05T08:41:27.427Z,896.00
2024-02-05T08:42:32.405Z,890.00
2024-02-05T08:43:28.432Z,879.00
2024-02-05T08:44:27.386Z,878.00
2024-02-05T08:45:27.418Z,879.00
2024-02-05T08:46:27.452Z,879.00
2024-02-05T08:47:27.501Z,883.00
2024-02-05T08:48:27.533Z,879.00
2024-02-05T08:49:27.496Z,872.00
2024-02-05T08:50:28.987Z,870.00
2024-02-05T08:51:28.559Z,872.00
2024-02-05T08:52:27.610Z,878.00
2024-02-05T08:53:27.557Z,884.00
2024-02-05T08:54:27.749Z,890.00
2024-02-05T08:55:27.777Z,911.00
2024-02-05T08:56:27.685Z,920.00
2024-02-05T08:57:27.732Z,927.00
2024-02-05T08:58:27.915Z,927.00
2024-02-05T08:59:27.756Z,928.00
2024-02-05T09:00:27.795Z,931.00
2024-02-05T09:01:28.005Z,937.00
2024-02-05T09:02:28.027Z,939.00
2024-02-05T09:03:27.945Z,938.00
2024-02-05T09:04:27.938Z,942.00
2024-02-05T09:05:37.420Z,951.00
2024-02-05T09:06:29.107Z,962.00
2024-02-05T09:07:27.999Z,970.00
2024-02-05T09:08:27.941Z,999.00
2024-02-05T09:09:28.399Z,1018.00
2024-02-05T09:10:28.999Z,1023.00
2024-02-05T09:11:27.945Z,1020.00
2024-02-05T09:12:27.920Z,935.00
2024-02-05T09:13:27.960Z,901.00
2024-02-05T09:14:27.958Z,826.00
2024-02-05T09:15:28.098Z,767.00
2024-02-05T09:16:27.937Z,755.00
2024-02-05T09:17:27.943Z,739.00
2024-02-05T09:18:28.120Z,721.00
2024-02-05T09:19:28.088Z,706.00
2024-02-05T09:20:27.940Z,696.00
2024-02-05T09:21:27.996Z,688.00
2024-02-05T09:22:28.130Z,681.00
2024-02-05T09:23:28.024Z,672.00
2024-02-05T09:24:28.105Z,665.00
2024-02-05T09:25:28.298Z,661.00
2024-02-05T09:26:28.206Z,656.00
2024-02-05T09:27:28.309Z,651.00
2024-02-05T09:28:28.533Z,645.00
2024-02-05T09:29:28.434Z,638.00
2024-02-05T09:30:28.493Z,632.00
2024-02-05T09:31:28.618Z,630.00
2024-02-05T09:32:28.652Z,630.00
2024-02-05T09:33:28.669Z,634.00
2024-02-05T09:34:28.911Z,644.00
2024-02-05T09:35:28.970Z,655.00
2024-02-05T09:36:28.925Z,662.00
2024-02-05T09:37:29.463Z,678.00
2024-02-05T09:38:29.871Z,749.00
2024-02-05T09:39:29.085Z,762.00
2024-02-05T09:40:29.212Z,776.00
2024-02-05T09:41:29.191Z,772.00
2024-02-05T09:42:29.302Z,767.00
2024-02-05T09:43:29.326Z,761.00
2024-02-05T09:44:30.917Z,757.00
2024-02-05T09:45:29.449Z,749.00
2024-02-05T09:46:29.659Z,750.00
2024-02-05T09:47:30.084Z,801.00
2024-02-05T09:48:37.100Z,817.00
2024-02-05T09:49:31.600Z,815.00
2024-02-05T09:50:29.703Z,803.00
2024-02-05T09:51:29.594Z,808.00
2024-02-05T09:52:29.597Z,807.00
2024-02-05T09:53:29.510Z,808.00
2024-02-05T09:54:29.501Z,807.00
2024-02-05T09:55:30.090Z,818.00
2024-02-05T09:56:29.973Z,833.00
2024-02-05T09:57:29.928Z,892.00
2024-02-05T09:58:29.641Z,896.00
2024-02-05T09:59:29.490Z,902.00
2024-02-05T10:00:29.476Z,912.00
2024-02-05T10:01:29.616Z,911.00
2024-02-05T10:02:29.589Z,908.00
2024-02-05T10:03:29.642Z,909.00
2024-02-05T10:04:29.700Z,911.00
2024-02-05T10:05:29.528Z,920.00
2024-02-05T10:06:29.497Z,926.00
2024-02-05T10:07:29.553Z,980.00
2024-02-05T10:08:29.487Z,996.00
2024-02-05T10:09:29.509Z,1009.00
2024-02-05T10:10:29.592Z,1030.00
2024-02-05T10:11:29.742Z,1074.00
2024-02-05T10:12:29.506Z,1078.00
2024-02-05T10:13:29.562Z,1080.00
2024-02-05T10:14:30.253Z,1088.00
2024-02-05T10:15:29.544Z,1092.00
2024-02-05T10:16:29.609Z,1107.00
2024-02-05T10:17:31.959Z,1111.00
2024-02-05T10:18:29.790Z,1113.00
2024-02-05T10:19:30.365Z,1111.00
2024-02-05T10:20:29.723Z,1117.00
2024-02-05T10:21:29.827Z,1168.00
2024-02-05T10:22:30.038Z,1131.00
2024-02-05T10:23:32.237Z,1112.00
2024-02-05T10:24:30.119Z,1102.00
2024-02-05T10:25:30.132Z,1091.00
2024-02-05T10:26:34.922Z,1195.00
2024-02-05T10:27:30.884Z,1059.00
2024-02-05T10:28:30.358Z,994.00
2024-02-05T10:29:30.287Z,973.00
2024-02-05T10:30:30.184Z,907.00
2024-02-05T10:31:30.282Z,931.00
2024-02-05T10:32:30.199Z,918.00
2024-02-05T10:33:32.075Z,908.00
2024-02-05T10:34:30.254Z,882.00
2024-02-05T10:35:30.211Z,864.00
2024-02-05T10:36:30.331Z,861.00
2024-02-05T10:37:30.246Z,855.00
2024-02-05T10:38:31.227Z,853.00
2024-02-05T10:39:30.212Z,856.00
2024-02-05T10:40:30.296Z,858.00
2024-02-05T10:41:30.350Z,859.00
2024-02-05T10:42:30.337Z,858.00
2024-02-05T10:43:30.422Z,853.00
2024-02-05T10:44:38.012Z,849.00
2024-02-05T10:45:31.438Z,860.00
2024-02-05T10:46:30.532Z,869.00
2024-02-05T10:47:30.610Z,869.00
2024-02-05T10:48:30.503Z,871.00
2024-02-05T10:49:30.505Z,884.00
2024-02-05T10:50:30.447Z,894.00
2024-02-05T10:51:30.519Z,901.00
2024-02-05T10:52:30.601Z,908.00
2024-02-05T10:53:30.521Z,911.00
2024-02-05T10:54:30.456Z,916.00
2024-02-05T10:55:30.877Z,916.00
2024-02-05T10:56:30.551Z,908.00
2024-02-05T10:57:31.722Z,891.00
2024-02-05T10:58:30.762Z,886.00
2024-02-05T10:59:30.681Z,898.00
2024-02-05T11:00:30.756Z,956.00
2024-02-05T11:01:30.783Z,938.00
2024-02-05T11:02:30.854Z,941.00
2024-02-05T11:03:30.910Z,948.00
2024-02-05T11:04:31.096Z,958.00
2024-02-05T11:05:31.136Z,959.00
2024-02-05T11:06:31.085Z,897.00
2024-02-05T11:07:31.226Z,781.00
2024-02-05T11:08:31.171Z,763.00
2024-02-05T11:09:34.410Z,754.00
2024-02-05T11:10:32.364Z,671.00
2024-02-05T11:11:31.214Z,715.00
2024-02-05T11:12:31.264Z,717.00
2024-02-05T11:13:31.642Z,665.00
2024-02-05T11:14:31.163Z,762.00
2024-02-05T11:15:31.304Z,715.00
2024-02-05T11:16:31.237Z,653.00
2024-02-05T11:17:31.257Z,654.00
2024-02-05T11:18:31.192Z,659.00
2024-02-05T11:19:31.260Z,656.00
2024-02-05T11:20:32.073Z,654.00
2024-02-05T11:21:31.980Z,666.00
2024-02-05T11:22:33.954Z,670.00
2024-02-05T11:23:31.323Z,676.00
2024-02-05T11:24:31.207Z,669.00
2024-02-05T11:25:31.309Z,655.00
2024-02-05T11:26:31.198Z,664.00
2024-02-05T11:27:31.229Z,670.00
2024-02-05T11:28:31.250Z,653.00
2024-02-05T11:29:31.270Z,650.00
2024-02-05T11:30:31.249Z,663.00
2024-02-05T11:31:31.351Z,683.00
2024-02-05T11:32:31.297Z,714.00
2024-02-05T11:33:31.318Z,688.00
2024-02-05T11:34:31.317Z,601.00
2024-02-05T11:35:31.293Z,602.00
2024-02-05T11:36:31.240Z,656.00
2024-02-05T11:37:31.354Z,682.00
2024-02-05T11:38:31.206Z,690.00
2024-02-05T11:39:31.227Z,692.00
2024-02-05T11:40:34.050Z,689.00
2024-02-05T11:41:31.210Z,687.00
2024-02-05T11:42:31.244Z,689.00
2024-02-05T11:43:31.437Z,690.00
2024-02-05T11:44:31.236Z,692.00
2024-02-05T11:45:31.228Z,693.00
2024-02-05T11:46:31.314Z,695.00
2024-02-05T11:47:31.297Z,686.00
2024-02-05T11:48:31.315Z,618.00
2024-02-05T11:49:31.289Z,599.00
2024-02-05T11:50:31.208Z,591.00
2024-02-05T11:51:32.845Z,583.00
2024-02-05T11:52:31.638Z,572.00
2024-02-05T11:53:31.237Z,568.00
2024-02-05T11:54:31.269Z,575.00
2024-02-05T11:55:31.349Z,579.00
2024-02-05T11:56:31.262Z,590.00
2024-02-05T11:57:31.973Z,663.00
2024-02-05T11:58:31.310Z,673.00
2024-02-05T11:59:31.250Z,672.00
2024-02-05T12:00:31.281Z,675.00
2024-02-05T12:01:31.309Z,675.00
2024-02-05T12:02:31.248Z,675.00
2024-02-05T12:03:31.491Z,673.00
2024-02-05T12:04:31.331Z,672.00
2024-02-05T12:05:31.302Z,674.00
2024-02-05T12:06:31.278Z,678.00
2024-02-05T12:07:31.269Z,682.00
2024-02-05T12:08:31.231Z,682.00
2024-02-05T12:09:31.248Z,682.00
2024-02-05T12:10:31.368Z,684.00
2024-02-05T12:11:31.213Z,684.00
2024-02-05T12:12:31.320Z,684.00
2024-02-05T12:13:31.318Z,685.00
2024-02-05T12:14:31.382Z,683.00
2024-02-05T12:15:31.458Z,680.00
2024-02-05T12:16:31.383Z,680.00
2024-02-05T12:17:31.365Z,681.00
2024-02-05T12:18:31.349Z,680.00
2024-02-05T12:19:31.586Z,678.00
2024-02-05T12:20:31.549Z,674.00
2024-02-05T12:21:31.316Z,674.00
2024-02-05T12:22:31.665Z,674.00
2024-02-05T12:23:31.361Z,674.00
2024-02-05T12:24:31.319Z,672.00
2024-02-05T12:25:38.625Z,671.00
2024-02-05T12:26:32.403Z,668.00
2024-02-05T12:27:31.503Z,669.00
2024-02-05T12:28:31.581Z,667.00
2024-02-05T12:29:31.390Z,667.00
2024-02-05T12:30:31.442Z,668.00
2024-02-05T12:31:31.415Z,670.00
2024-02-05T12:32:38.219Z,673.00
2024-02-05T12:33:32.479Z,677.00
2024-02-05T12:34:31.482Z,677.00
2024-02-05T12:35:31.394Z,677.00
2024-02-05T12:36:31.370Z,674.00
2024-02-05T12:37:31.358Z,674.00
2024-02-05T12:38:31.806Z,675.00
2024-02-05T12:39:31.377Z,674.00
2024-02-05T12:40:31.429Z,672.00
2024-02-05T12:41:31.372Z,672.00
2024-02-05T12:42:31.361Z,673.00
2024-02-05T12:43:31.515Z,676.00
2024-02-05T12:44:38.478Z,675.00
2024-02-05T12:45:32.532Z,675.00
2024-02-05T12:46:31.633Z,677.00
2024-02-05T12:47:31.416Z,679.00
2024-02-05T12:48:31.540Z,680.00
2024-02-05T12:49:32.051Z,681.00
2024-02-05T12:50:33.802Z,683.00
2024-02-05T12:51:31.539Z,684.00
2024-02-05T12:52:31.662Z,687.00
2024-02-05T12:53:31.672Z,686.00
2024-02-05T12:54:31.725Z,687.00
2024-02-05T12:55:31.795Z,689.00
2024-02-05T12:56:31.867Z,689.00
2024-02-05T12:57:31.835Z,689.00
2024-02-05T12:58:31.935Z,692.00
2024-02-05T12:59:31.945Z,693.00
2024-02-05T13:00:31.932Z,694.00
2024-02-05T13:01:32.079Z,694.00
2024-02-05T13:02:32.016Z,698.00
2024-02-05T13:03:31.951Z,696.00
2024-02-05T13:04:32.711Z,699.00
2024-02-05T13:05:32.065Z,699.00
2024-02-05T13:06:32.146Z,698.00
2024-02-05T13:07:32.194Z,696.00
2024-02-05T13:08:31.999Z,696.00
2024-02-05T13:09:32.010Z,694.00
2024-02-05T13:10:32.027Z,694.00
2024-02-05T13:11:32.140Z,689.00
2024-02-05T13:12:31.940Z,696.00
2024-02-05T13:13:32.004Z,704.00
2024-02-05T13:14:31.951Z,703.00
2024-02-05T13:15:31.922Z,705.00
2024-02-05T13:16:31.967Z,711.00
2024-02-05T13:17:31.994Z,704.00
2024-02-05T13:18:32.140Z,699.00
2024-02-05T13:19:32.208Z,695.00
2024-02-05T13:20:31.966Z,691.00
2024-02-05T13:21:31.933Z,685.00
2024-02-05T13:22:32.129Z,682.00
2024-02-05T13:23:32.043Z,681.00
2024-02-05T13:24:32.105Z,678.00
2024-02-05T13:25:33.506Z,678.00
2024-02-05T13:26:32.160Z,678.00
2024-02-05T13:27:32.202Z,676.00
2024-02-05T13:28:32.198Z,674.00
2024-02-05T13:29:32.172Z,671.00
2024-02-05T13:30:32.169Z,668.00
2024-02-05T13:31:33.034Z,668.00
2024-02-05T13:32:32.157Z,667.00
2024-02-05T13:33:32.180Z,665.00
2024-02-05T13:34:32.263Z,662.00
2024-02-05T13:35:32.172Z,660.00
2024-02-05T13:36:32.198Z,657.00
2024-02-05T13:37:32.253Z,652.00
2024-02-05T13:38:32.160Z,651.00
2024-02-05T13:39:32.175Z,649.00
2024-02-05T13:40:32.212Z,647.00
2024-02-05T13:41:32.174Z,643.00
2024-02-05T13:42:32.171Z,637.00
2024-02-05T13:43:32.246Z,640.00
2024-02-05T13:44:32.180Z,637.00
2024-02-05T13:45:32.156Z,636.00
2024-02-05T13:46:32.242Z,634.00
2024-02-05T13:47:32.179Z,632.00
2024-02-05T13:48:32.211Z,633.00
2024-02-05T13:49:32.260Z,629.00
2024-02-05T13:50:32.266Z,624.00
2024-02-05T13:51:32.489Z,624.00
2024-02-05T13:52:32.279Z,622.00
2024-02-05T13:53:32.206Z,619.00
2024-02-05T13:54:32.203Z,618.00
2024-02-05T13:55:32.249Z,615.00
2024-02-05T13:56:32.217Z,612.00
2024-02-05T13:57:32.203Z,610.00
2024-02-05T13:58:32.223Z,609.00
2024-02-05T13:59:32.224Z,604.00
2024-02-05T14:00:32.216Z,599.00
2024-02-05T14:01:32.350Z,597.00
2024-02-05T14:02:32.203Z,592.00
2024-02-05T14:03:32.245Z,588.00
2024-02-05T14:04:32.312Z,587.00
2024-02-05T14:05:32.254Z,585.00
2024-02-05T14:06:32.255Z,585.00
2024-02-05T14:07:32.401Z,585.00
2024-02-05T14:08:32.319Z,584.00
2024-02-05T14:09:32.268Z,586.00
2024-02-05T14:10:33.334Z,588.00
2024-02-05T14:11:33.054Z,588.00
2024-02-05T14:12:32.315Z,588.00
2024-02-05T14:13:32.257Z,588.00
2024-02-05T14:14:32.384Z,586.00
2024-02-05T14:15:32.242Z,587.00
2024-02-05T14:16:32.640Z,589.00
2024-02-05T14:17:32.277Z,590.00
2024-02-05T14:18:32.484Z,585.00
2024-02-05T14:19:32.309Z,584.00
2024-02-05T14:20:32.278Z,580.00
2024-02-05T14:21:32.240Z,577.00
2024-02-05T14:22:32.258Z,576.00
2024-02-05T14:23:32.232Z,574.00
2024-02-05T14:24:32.253Z,573.00
2024-02-05T14:25:32.396Z,577.00
2024-02-05T14:26:32.230Z,576.00
2024-02-05T14:27:32.252Z,580.00
2024-02-05T14:28:34.368Z,585.00
2024-02-05T14:29:32.315Z,584.00
2024-02-05T14:30:32.264Z,589.00
2024-02-05T14:31:32.323Z,595.00
2024-02-05T14:32:32.321Z,597.00
2024-02-05T14:33:32.323Z,601.00
2024-02-05T14:34:32.422Z,605.00
2024-02-05T14:35:32.402Z,625.00
2024-02-05T14:36:32.339Z,621.00
2024-02-05T14:37:32.348Z,624.00
2024-02-05T14:38:32.328Z,621.00
2024-02-05T14:39:32.309Z,622.00
2024-02-05T14:40:32.460Z,622.00
2024-02-05T14:41:32.411Z,621.00
2024-02-05T14:42:32.281Z,621.00
2024-02-05T14:43:32.326Z,622.00
2024-02-05T14:44:32.342Z,621.00
2024-02-05T14:45:33.298Z,618.00
2024-02-05T14:46:32.340Z,617.00
2024-02-05T14:47:32.503Z,617.00
2024-02-05T14:48:32.671Z,617.00
2024-02-05T14:49:32.413Z,618.00
2024-02-05T14:50:32.666Z,618.00
2024-02-05T14:51:32.358Z,616.00
2024-02-05T14:52:32.392Z,613.00
2024-02-05T14:53:32.340Z,608.00
2024-02-05T14:54:32.315Z,607.00
2024-02-05T14:55:32.419Z,606.00
2024-02-05T14:56:32.385Z,603.00
2024-02-05T14:57:32.489Z,604.00
2024-02-05T14:58:32.494Z,606.00
2024-02-05T14:59:32.440Z,610.00
2024-02-05T15:00:32.513Z,614.00
2024-02-05T15:01:32.534Z,615.00
2024-02-05T15:02:32.487Z,617.00
2024-02-05T15:03:56.134Z,616.00
2024-02-05T15:04:32.586Z,617.00
2024-02-05T15:05:32.693Z,620.00
2024-02-05T15:06:32.570Z,621.00
2024-02-05T15:07:32.669Z,621.00
2024-02-05T15:08:32.525Z,624.00
2024-02-05T15:09:32.545Z,627.00
2024-02-05T15:10:32.567Z,629.00
2024-02-05T15:11:32.503Z,635.00
2024-02-05T15:12:32.556Z,645.00
2024-02-05T15:13:32.584Z,651.00
2024-02-05T15:14:32.546Z,654.00
2024-02-05T15:15:32.529Z,655.00
2024-02-05T15:16:32.656Z,658.00
2024-02-05T15:17:32.635Z,657.00
2024-02-05T15:18:32.546Z,654.00
2024-02-05T15:19:32.709Z,653.00
2024-02-05T15:20:32.540Z,653.00
2024-02-05T15:21:32.546Z,651.00
2024-02-05T15:22:32.597Z,648.00
2024-02-05T15:23:32.584Z,647.00
2024-02-05T15:24:32.619Z,644.00
2024-02-05T15:25:32.613Z,642.00
2024-02-05T15:26:32.530Z,637.00
2024-02-05T15:27:32.533Z,636.00
2024-02-05T15:28:32.566Z,635.00
2024-02-05T15:29:32.541Z,636.00
2024-02-05T15:30:32.548Z,635.00
2024-02-05T15:31:32.634Z,633.00
2024-02-05T15:32:32.664Z,632.00
2024-02-05T15:33:32.580Z,629.00
2024-02-05T15:34:32.617Z,628.00
2024-02-05T15:35:32.683Z,627.00
2024-02-05T15:36:32.554Z,627.00
2024-02-05T15:37:32.771Z,629.00
2024-02-05T15:38:32.557Z,627.00
2024-02-05T15:39:32.535Z,625.00
2024-02-05T15:40:32.590Z,623.00
2024-02-05T15:41:32.539Z,622.00
2024-02-05T15:42:32.562Z,621.00
2024-02-05T15:43:32.697Z,622.00
2024-02-05T15:44:32.553Z,620.00
2024-02-05T15:45:32.559Z,621.00
2024-02-05T15:46:32.680Z,620.00
2024-02-05T15:47:32.744Z,619.00
2024-02-05T15:48:32.720Z,620.00
2024-02-05T15:49:32.647Z,619.00
2024-02-05T15:50:32.561Z,619.00
2024-02-05T15:51:32.582Z,618.00
2024-02-05T15:52:32.666Z,611.00
2024-02-05T15:53:32.576Z,608.00
2024-02-05T15:54:32.608Z,606.00
2024-02-05T15:55:32.580Z,608.00
2024-02-05T15:56:37.190Z,608.00
2024-02-05T15:57:33.616Z,608.00
2024-02-05T15:58:32.954Z,609.00
2024-02-05T15:59:32.550Z,611.00
2024-02-05T16:00:32.646Z,610.00
2024-02-05T16:01:33.958Z,608.00
2024-02-05T16:02:32.570Z,607.00
2024-02-05T16:03:32.575Z,608.00
2024-02-05T16:04:32.777Z,608.00
2024-02-05T16:05:32.638Z,604.00
2024-02-05T16:06:32.605Z,602.00
2024-02-05T16:07:32.632Z,599.00
2024-02-05T16:08:32.605Z,597.00
2024-02-05T16:11:01.111Z,597.00
2024-02-05T16:11:37.717Z,595.00
2024-02-05T16:13:00.306Z,595.00
2024-02-05T16:14:00.282Z,595.00
2024-02-05T16:16:06.745Z,595.00
2024-02-05T16:16:42.716Z,596.00
2024-02-05T16:17:42.699Z,599.00
2024-02-05T16:18:44.970Z,603.00
2024-02-05T16:19:43.039Z,602.00
2024-02-05T16:20:43.030Z,606.00
2024-02-05T16:21:42.992Z,605.00
2024-02-05T16:22:43.123Z,605.00
2024-02-05T16:23:43.112Z,603.00
2024-02-05T16:24:43.194Z,605.00
2024-02-05T16:25:43.290Z,605.00
2024-02-05T16:26:43.313Z,604.00
2024-02-05T16:27:43.395Z,603.00
2024-02-05T16:28:43.495Z,604.00
2024-02-05T16:29:43.480Z,603.00
2024-02-05T16:30:43.547Z,604.00
2024-02-05T16:31:43.853Z,607.00
2024-02-05T16:32:43.857Z,608.00
2024-02-05T16:33:43.792Z,606.00
2024-02-05T16:34:43.786Z,606.00
2024-02-05T16:35:43.811Z,604.00
2024-02-05T16:36:43.849Z,607.00
2024-02-05T16:37:44.063Z,609.00
2024-02-05T16:38:43.960Z,610.00
2024-02-05T16:39:44.050Z,610.00
2024-02-05T16:40:44.096Z,610.00
2024-02-05T16:41:44.165Z,610.00
2024-02-05T16:42:44.204Z,609.00
2024-02-05T16:43:44.268Z,610.00
2024-02-05T16:44:44.305Z,609.00
2024-02-05T16:45:44.357Z,613.00
2024-02-05T16:46:44.429Z,612.00
2024-02-05T16:47:44.466Z,613.00
2024-02-05T16:48:44.583Z,613.00
2024-02-05T16:49:44.629Z,613.00
2024-02-05T16:50:44.625Z,612.00
2024-02-05T16:51:44.694Z,611.00
2024-02-05T16:52:44.786Z,609.00
2024-02-05T16:53:44.828Z,611.00
2024-02-05T16:54:44.863Z,612.00
2024-02-05T16:55:45.027Z,610.00
2024-02-05T16:56:44.986Z,608.00
2024-02-05T16:57:45.046Z,608.00
2024-02-05T16:58:45.118Z,609.00
2024-02-05T16:59:45.169Z,606.00
2024-02-05T17:00:49.222Z,605.00
2024-02-05T17:01:46.303Z,607.00
2024-02-05T17:02:45.225Z,609.00
2024-02-05T17:03:45.225Z,607.00
2024-02-05T17:04:45.736Z,607.00
2024-02-05T17:05:45.227Z,607.00
2024-02-05T17:06:45.263Z,606.00
2024-02-05T17:07:45.552Z,605.00
2024-02-05T17:08:45.228Z,604.00
2024-02-05T17:09:45.296Z,605.00
2024-02-05T17:10:45.297Z,607.00
2024-02-05T17:11:45.310Z,609.00
2024-02-05T17:12:45.397Z,608.00
2024-02-05T17:13:45.419Z,610.00
2024-02-05T17:14:45.507Z,607.00
2024-02-05T17:15:45.666Z,606.00
2024-02-05T17:16:51.693Z,605.00
2024-02-05T17:17:46.672Z,607.00
2024-02-05T17:18:45.838Z,606.00
2024-02-05T17:19:45.767Z,610.00
2024-02-05T17:20:45.609Z,610.00
2024-02-05T17:21:45.654Z,609.00
2024-02-05T17:22:45.633Z,612.00
2024-02-05T17:23:45.636Z,614.00
2024-02-05T17:24:45.757Z,617.00
2024-02-05T17:25:45.698Z,620.00
2024-02-05T17:26:45.617Z,618.00
2024-02-05T17:27:45.716Z,619.00
2024-02-05T17:28:45.848Z,620.00
2024-02-05T17:29:45.802Z,621.00
2024-02-05T17:30:45.931Z,621.00
2024-02-05T17:31:45.974Z,621.00
2024-02-05T17:32:46.085Z,623.00
2024-02-05T17:33:46.163Z,622.00
2024-02-05T17:34:46.483Z,625.00
2024-02-05T17:35:46.236Z,625.00
2024-02-05T17:36:46.303Z,627.00
2024-02-05T17:37:46.311Z,625.00
2024-02-05T17:38:46.381Z,624.00
2024-02-05T17:39:46.472Z,623.00
2024-02-05T17:40:46.546Z,622.00
2024-02-05T17:41:46.599Z,624.00
2024-02-05T17:42:46.669Z,626.00
2024-02-05T17:43:46.726Z,625.00
2024-02-05T17:44:46.769Z,624.00
2024-02-05T17:45:46.898Z,622.00
2024-02-05T17:46:46.938Z,621.00
2024-02-05T17:47:47.037Z,623.00
2024-02-05T17:48:47.082Z,625.00
2024-02-05T17:49:47.206Z,626.00
2024-02-05T17:50:47.214Z,627.00
2024-02-05T17:51:47.287Z,626.00
2024-02-05T17:52:47.370Z,624.00
2024-02-05T17:53:47.393Z,623.00
2024-02-05T17:54:47.515Z,624.00
2024-02-05T17:55:47.597Z,624.00
2024-02-05T17:56:47.603Z,626.00
2024-02-05T17:57:47.887Z,627.00
2024-02-05T17:58:47.736Z,627.00
2024-02-05T17:59:47.782Z,627.00
2024-02-05T18:00:47.999Z,625.00
